sensor_id;sensor_type;location;lat;lon;timestamp;temperature;humidity
29093;DHT22;16167;48.768;14.984;2023-09-12T00:02:18;15.10;27.80
29093;DHT22;16167;48.768;14.984;2023-09-12T00:04:46;15.10;24.80
29093;DHT22;16167;48.768;14.984;2023-09-12T00:07:17;15.10;22.00
29093;DHT22;16167;48.768;14.984;2023-09-12T00:09:45;15.00;15.60
29093;DHT22;16167;48.768;14.984;2023-09-12T00:12:13;15.00;27.60
29093;DHT22;16167;48.768;14.984;2023-09-12T00:14:41;15.00;21.10
29093;DHT22;16167;48.768;14.984;2023-09-12T00:17:10;15.00;18.40
29093;DHT22;16167;48.768;14.984;2023-09-12T00:19:38;14.90;26.40
29093;DHT22;16167;48.768;14.984;2023-09-12T00:22:06;15.00;23.00
29093;DHT22;16167;48.768;14.984;2023-09-12T00:24:34;14.90;26.50
29093;DHT22;16167;48.768;14.984;2023-09-12T00:27:03;14.90;28.50
29093;DHT22;16167;48.768;14.984;2023-09-12T00:29:32;14.90;25.90
29093;DHT22;16167;48.768;14.984;2023-09-12T00:32:00;14.90;21.80
29093;DHT22;16167;48.768;14.984;2023-09-12T00:34:29;14.90;22.20
29093;DHT22;16167;48.768;14.984;2023-09-12T00:36:57;14.80;18.90
29093;DHT22;16167;48.768;14.984;2023-09-12T00:39:25;14.80;28.30
29093;DHT22;16167;48.768;14.984;2023-09-12T00:41:53;14.70;34.50
29093;DHT22;16167;48.768;14.984;2023-09-12T00:44:21;14.70;30.10
29093;DHT22;16167;48.768;14.984;2023-09-12T00:46:49;14.60;36.10
29093;DHT22;16167;48.768;14.984;2023-09-12T00:49:17;14.50;37.20
29093;DHT22;16167;48.768;14.984;2023-09-12T00:51:47;14.50;40.50
29093;DHT22;16167;48.768;14.984;2023-09-12T00:54:16;14.40;38.50
29093;DHT22;16167;48.768;14.984;2023-09-12T00:56:44;14.40;39.20
29093;DHT22;16167;48.768;14.984;2023-09-12T00:59:12;14.30;44.00
29093;DHT22;16167;48.768;14.984;2023-09-12T01:01:41;14.30;46.40
29093;DHT22;16167;48.768;14.984;2023-09-12T01:04:10;14.20;40.50
29093;DHT22;16167;48.768;14.984;2023-09-12T01:06:59;14.20;41.20
29093;DHT22;16167;48.768;14.984;2023-09-12T01:09:27;14.10;42.70
29093;DHT22;16167;48.768;14.984;2023-09-12T01:11:56;14.10;37.80
29093;DHT22;16167;48.768;14.984;2023-09-12T01:14:24;14.10;39.30
29093;DHT22;16167;48.768;14.984;2023-09-12T01:16:52;14.10;35.70
29093;DHT22;16167;48.768;14.984;2023-09-12T01:19:20;14.00;50.50
29093;DHT22;16167;48.768;14.984;2023-09-12T01:21:59;14.10;52.30
29093;DHT22;16167;48.768;14.984;2023-09-12T01:24:44;14.10;58.40
29093;DHT22;16167;48.768;14.984;2023-09-12T01:27:19;14.10;53.00
29093;DHT22;16167;48.768;14.984;2023-09-12T01:29:49;14.00;51.30
29093;DHT22;16167;48.768;14.984;2023-09-12T01:32:18;14.00;47.10
29093;DHT22;16167;48.768;14.984;2023-09-12T01:34:47;14.00;52.30
29093;DHT22;16167;48.768;14.984;2023-09-12T01:37:15;14.00;56.50
29093;DHT22;16167;48.768;14.984;2023-09-12T01:39:43;14.00;49.50
29093;DHT22;16167;48.768;14.984;2023-09-12T01:42:13;14.00;47.20
29093;DHT22;16167;48.768;14.984;2023-09-12T01:44:44;13.90;46.10
29093;DHT22;16167;48.768;14.984;2023-09-12T01:47:12;13.90;54.30
29093;DHT22;16167;48.768;14.984;2023-09-12T01:49:48;13.90;59.70
29093;DHT22;16167;48.768;14.984;2023-09-12T01:52:17;13.90;52.00
29093;DHT22;16167;48.768;14.984;2023-09-12T01:54:46;14.00;70.50
29093;DHT22;16167;48.768;14.984;2023-09-12T01:57:14;13.90;60.50
29093;DHT22;16167;48.768;14.984;2023-09-12T01:59:44;13.90;57.10
29093;DHT22;16167;48.768;14.984;2023-09-12T02:02:12;13.80;57.10
29093;DHT22;16167;48.768;14.984;2023-09-12T02:04:39;13.90;48.80
29093;DHT22;16167;48.768;14.984;2023-09-12T02:07:07;13.80;55.20
29093;DHT22;16167;48.768;14.984;2023-09-12T02:09:35;13.70;52.70
29093;DHT22;16167;48.768;14.984;2023-09-12T02:12:04;13.70;57.30
29093;DHT22;16167;48.768;14.984;2023-09-12T02:14:32;13.70;55.70
29093;DHT22;16167;48.768;14.984;2023-09-12T02:17:01;13.60;57.90
29093;DHT22;16167;48.768;14.984;2023-09-12T02:19:29;13.50;57.40
29093;DHT22;16167;48.768;14.984;2023-09-12T02:21:57;13.50;55.10
29093;DHT22;16167;48.768;14.984;2023-09-12T02:24:26;13.50;55.10
29093;DHT22;16167;48.768;14.984;2023-09-12T02:26:53;13.50;54.50
29093;DHT22;16167;48.768;14.984;2023-09-12T02:29:21;13.40;51.90
29093;DHT22;16167;48.768;14.984;2023-09-12T02:31:49;13.40;61.60
29093;DHT22;16167;48.768;14.984;2023-09-12T02:34:19;13.40;66.00
29093;DHT22;16167;48.768;14.984;2023-09-12T02:36:46;13.40;68.30
29093;DHT22;16167;48.768;14.984;2023-09-12T02:39:14;13.30;68.00
29093;DHT22;16167;48.768;14.984;2023-09-12T02:41:42;13.30;70.10
29093;DHT22;16167;48.768;14.984;2023-09-12T02:44:10;13.30;66.40
29093;DHT22;16167;48.768;14.984;2023-09-12T02:46:38;13.30;63.10
29093;DHT22;16167;48.768;14.984;2023-09-12T02:49:06;13.30;68.00
29093;DHT22;16167;48.768;14.984;2023-09-12T02:51:37;13.30;65.60
29093;DHT22;16167;48.768;14.984;2023-09-12T02:54:05;13.30;71.50
29093;DHT22;16167;48.768;14.984;2023-09-12T02:56:33;13.30;59.30
29093;DHT22;16167;48.768;14.984;2023-09-12T02:59:01;13.30;63.70
29093;DHT22;16167;48.768;14.984;2023-09-12T03:01:31;13.30;71.80
29093;DHT22;16167;48.768;14.984;2023-09-12T03:03:59;13.30;73.30
29093;DHT22;16167;48.768;14.984;2023-09-12T03:06:28;13.30;73.00
29093;DHT22;16167;48.768;14.984;2023-09-12T03:08:57;13.30;72.10
29093;DHT22;16167;48.768;14.984;2023-09-12T03:11:25;13.30;68.20
29093;DHT22;16167;48.768;14.984;2023-09-12T03:13:53;13.20;78.50
29093;DHT22;16167;48.768;14.984;2023-09-12T03:16:21;13.20;79.40
29093;DHT22;16167;48.768;14.984;2023-09-12T03:18:51;13.10;76.50
29093;DHT22;16167;48.768;14.984;2023-09-12T03:21:19;13.10;69.70
29093;DHT22;16167;48.768;14.984;2023-09-12T03:23:47;13.10;71.90
29093;DHT22;16167;48.768;14.984;2023-09-12T03:26:16;13.10;76.70
29093;DHT22;16167;48.768;14.984;2023-09-12T03:28:44;13.10;78.00
29093;DHT22;16167;48.768;14.984;2023-09-12T03:31:12;13.00;81.10
29093;DHT22;16167;48.768;14.984;2023-09-12T03:33:41;13.00;75.50
29093;DHT22;16167;48.768;14.984;2023-09-12T03:36:09;13.00;76.80
29093;DHT22;16167;48.768;14.984;2023-09-12T03:38:37;13.00;73.90
29093;DHT22;16167;48.768;14.984;2023-09-12T03:41:05;13.00;77.60
29093;DHT22;16167;48.768;14.984;2023-09-12T03:43:35;13.00;73.00
29093;DHT22;16167;48.768;14.984;2023-09-12T03:46:03;12.90;74.70
29093;DHT22;16167;48.768;14.984;2023-09-12T03:48:31;12.90;78.30
29093;DHT22;16167;48.768;14.984;2023-09-12T03:50:59;12.90;80.70
29093;DHT22;16167;48.768;14.984;2023-09-12T03:53:27;12.90;76.80
29093;DHT22;16167;48.768;14.984;2023-09-12T03:55:57;12.90;79.90
29093;DHT22;16167;48.768;14.984;2023-09-12T03:58:25;12.90;88.50
29093;DHT22;16167;48.768;14.984;2023-09-12T04:00:54;12.90;89.20
29093;DHT22;16167;48.768;14.984;2023-09-12T04:03:22;12.90;87.80
29093;DHT22;16167;48.768;14.984;2023-09-12T04:05:50;12.90;87.60
29093;DHT22;16167;48.768;14.984;2023-09-12T04:08:18;12.90;80.10
29093;DHT22;16167;48.768;14.984;2023-09-12T04:10:46;12.90;83.90
29093;DHT22;16167;48.768;14.984;2023-09-12T04:13:14;12.90;78.50
29093;DHT22;16167;48.768;14.984;2023-09-12T04:15:42;12.90;82.10
29093;DHT22;16167;48.768;14.984;2023-09-12T04:18:11;12.90;83.80
29093;DHT22;16167;48.768;14.984;2023-09-12T04:20:40;12.90;87.00
29093;DHT22;16167;48.768;14.984;2023-09-12T04:23:08;12.90;90.80
29093;DHT22;16167;48.768;14.984;2023-09-12T04:25:36;12.90;86.60
29093;DHT22;16167;48.768;14.984;2023-09-12T04:28:04;12.90;86.30
29093;DHT22;16167;48.768;14.984;2023-09-12T04:30:32;12.90;78.00
29093;DHT22;16167;48.768;14.984;2023-09-12T04:33:01;12.90;86.20
29093;DHT22;16167;48.768;14.984;2023-09-12T04:35:33;12.90;78.20
29093;DHT22;16167;48.768;14.984;2023-09-12T04:38:01;12.90;81.90
29093;DHT22;16167;48.768;14.984;2023-09-12T04:40:30;12.90;76.30
29093;DHT22;16167;48.768;14.984;2023-09-12T04:42:58;12.90;77.50
29093;DHT22;16167;48.768;14.984;2023-09-12T04:45:26;12.80;80.50
29093;DHT22;16167;48.768;14.984;2023-09-12T04:47:54;12.80;84.30
29093;DHT22;16167;48.768;14.984;2023-09-12T04:50:22;12.80;78.30
29093;DHT22;16167;48.768;14.984;2023-09-12T04:52:51;12.80;75.20
29093;DHT22;16167;48.768;14.984;2023-09-12T04:55:19;12.80;76.20
29093;DHT22;16167;48.768;14.984;2023-09-12T04:57:47;12.90;83.40
29093;DHT22;16167;48.768;14.984;2023-09-12T05:00:15;12.90;82.50
29093;DHT22;16167;48.768;14.984;2023-09-12T05:02:43;13.00;83.10
29093;DHT22;16167;48.768;14.984;2023-09-12T05:05:11;13.00;75.70
29093;DHT22;16167;48.768;14.984;2023-09-12T05:07:39;13.00;73.00
29093;DHT22;16167;48.768;14.984;2023-09-12T05:10:08;13.10;70.30
29093;DHT22;16167;48.768;14.984;2023-09-12T05:12:36;13.10;67.90
29093;DHT22;16167;48.768;14.984;2023-09-12T05:15:05;13.20;79.10
29093;DHT22;16167;48.768;14.984;2023-09-12T05:17:33;13.30;81.80
29093;DHT22;16167;48.768;14.984;2023-09-12T05:20:01;13.30;77.90
29093;DHT22;16167;48.768;14.984;2023-09-12T05:22:32;13.40;78.70
29093;DHT22;16167;48.768;14.984;2023-09-12T05:25:00;13.40;80.20
29093;DHT22;16167;48.768;14.984;2023-09-12T05:27:29;13.50;75.80
29093;DHT22;16167;48.768;14.984;2023-09-12T05:29:57;13.60;77.40
29093;DHT22;16167;48.768;14.984;2023-09-12T05:32:25;13.60;81.20
29093;DHT22;16167;48.768;14.984;2023-09-12T05:34:53;13.70;83.10
29093;DHT22;16167;48.768;14.984;2023-09-12T05:37:41;13.80;79.00
29093;DHT22;16167;48.768;14.984;2023-09-12T05:40:10;13.90;79.50
29093;DHT22;16167;48.768;14.984;2023-09-12T05:42:39;13.90;77.50
29093;DHT22;16167;48.768;14.984;2023-09-12T05:45:07;14.00;71.70
29093;DHT22;16167;48.768;14.984;2023-09-12T05:47:35;14.10;73.80
29093;DHT22;16167;48.768;14.984;2023-09-12T05:50:04;14.10;72.80
29093;DHT22;16167;48.768;14.984;2023-09-12T05:52:33;14.30;74.80
29093;DHT22;16167;48.768;14.984;2023-09-12T05:55:01;14.40;73.30
29093;DHT22;16167;48.768;14.984;2023-09-12T05:57:31;14.40;73.70
29093;DHT22;16167;48.768;14.984;2023-09-12T06:00:01;14.50;71.20
29093;DHT22;16167;48.768;14.984;2023-09-12T06:02:30;14.60;70.10
29093;DHT22;16167;48.768;14.984;2023-09-12T06:04:59;14.70;69.80
29093;DHT22;16167;48.768;14.984;2023-09-12T06:07:27;14.80;66.60
29093;DHT22;16167;48.768;14.984;2023-09-12T06:09:55;14.90;61.70
29093;DHT22;16167;48.768;14.984;2023-09-12T06:12:23;15.00;58.00
29093;DHT22;16167;48.768;14.984;2023-09-12T06:14:51;15.10;56.50
29093;DHT22;16167;48.768;14.984;2023-09-12T06:17:23;15.20;51.40
29093;DHT22;16167;48.768;14.984;2023-09-12T06:19:51;15.30;51.70
29093;DHT22;16167;48.768;14.984;2023-09-12T06:22:19;15.40;42.10
29093;DHT22;16167;48.768;14.984;2023-09-12T06:24:47;15.60;40.20
29093;DHT22;16167;48.768;14.984;2023-09-12T06:27:15;15.70;27.50
29093;DHT22;16167;48.768;14.984;2023-09-12T06:29:46;15.90;27.30
29093;DHT22;16167;48.768;14.984;2023-09-12T06:32:14;16.10;31.50
29093;DHT22;16167;48.768;14.984;2023-09-12T06:34:44;16.30;33.10
29093;DHT22;16167;48.768;14.984;2023-09-12T06:37:12;16.50;29.40
29093;DHT22;16167;48.768;14.984;2023-09-12T06:39:40;16.70;24.70
29093;DHT22;16167;48.768;14.984;2023-09-12T06:42:08;16.90;17.80
29093;DHT22;16167;48.768;14.984;2023-09-12T06:44:36;17.20;18.60
29093;DHT22;16167;48.768;14.984;2023-09-12T06:47:04;17.30;14.70
29093;DHT22;16167;48.768;14.984;2023-09-12T06:49:32;17.50;12.60
29093;DHT22;16167;48.768;14.984;2023-09-12T06:52:04;17.70;7.30
29093;DHT22;16167;48.768;14.984;2023-09-12T06:54:33;17.90;2.90
29093;DHT22;16167;48.768;14.984;2023-09-12T06:57:01;18.10;6.50
29093;DHT22;16167;48.768;14.984;2023-09-12T06:59:29;18.20;3.00
29093;DHT22;16167;48.768;14.984;2023-09-12T07:01:57;18.50;1.30
29093;DHT22;16167;48.768;14.984;2023-09-12T07:04:25;18.60;1.00
29093;DHT22;16167;48.768;14.984;2023-09-12T07:06:53;18.80;1.00
29093;DHT22;16167;48.768;14.984;2023-09-12T07:09:23;19.20;1.00
29093;DHT22;16167;48.768;14.984;2023-09-12T07:11:51;19.30;1.00
29093;DHT22;16167;48.768;14.984;2023-09-12T07:14:19;19.50;1.00
29093;DHT22;16167;48.768;14.984;2023-09-12T07:16:48;19.80;1.00
29093;DHT22;16167;48.768;14.984;2023-09-12T07:19:16;20.00;1.00
29093;DHT22;16167;48.768;14.984;2023-09-12T07:21:44;20.20;1.00
29093;DHT22;16167;48.768;14.984;2023-09-12T07:24:13;20.50;1.00
29093;DHT22;16167;48.768;14.984;2023-09-12T07:26:42;20.70;1.00
29093;DHT22;16167;48.768;14.984;2023-09-12T07:29:10;20.90;1.00
29093;DHT22;16167;48.768;14.984;2023-09-12T07:31:39;21.10;1.00
29093;DHT22;16167;48.768;14.984;2023-09-12T07:34:07;21.30;1.00
29093;DHT22;16167;48.768;14.984;2023-09-12T07:36:36;21.50;1.00
29093;DHT22;16167;48.768;14.984;2023-09-12T07:39:04;21.80;1.00
29093;DHT22;16167;48.768;14.984;2023-09-12T07:41:33;22.00;1.00
29093;DHT22;16167;48.768;14.984;2023-09-12T07:44:02;22.20;1.00
29093;DHT22;16167;48.768;14.984;2023-09-12T07:46:31;22.50;1.00
29093;DHT22;16167;48.768;14.984;2023-09-12T07:48:59;22.70;1.00
29093;DHT22;16167;48.768;14.984;2023-09-12T07:51:27;22.90;1.00
29093;DHT22;16167;48.768;14.984;2023-09-12T07:53:55;23.00;1.00
29093;DHT22;16167;48.768;14.984;2023-09-12T07:56:23;23.20;1.00
29093;DHT22;16167;48.768;14.984;2023-09-12T07:58:51;23.50;1.00
29093;DHT22;16167;48.768;14.984;2023-09-12T08:01:21;23.70;1.00
29093;DHT22;16167;48.768;14.984;2023-09-12T08:03:49;23.90;1.00
29093;DHT22;16167;48.768;14.984;2023-09-12T08:06:17;24.10;1.00
29093;DHT22;16167;48.768;14.984;2023-09-12T08:08:45;24.40;1.00
29093;DHT22;16167;48.768;14.984;2023-09-12T08:11:13;24.60;1.00
29093;DHT22;16167;48.768;14.984;2023-09-12T08:13:41;24.80;1.00
29093;DHT22;16167;48.768;14.984;2023-09-12T08:16:09;25.00;1.00
29093;DHT22;16167;48.768;14.984;2023-09-12T08:18:39;25.10;1.00
29093;DHT22;16167;48.768;14.984;2023-09-12T08:21:07;25.40;1.00
29093;DHT22;16167;48.768;14.984;2023-09-12T08:23:35;25.50;1.00
29093;DHT22;16167;48.768;14.984;2023-09-12T08:26:03;25.70;1.00
29093;DHT22;16167;48.768;14.984;2023-09-12T08:28:31;26.00;1.00
29093;DHT22;16167;48.768;14.984;2023-09-12T08:30:59;26.20;1.00
29093;DHT22;16167;48.768;14.984;2023-09-12T08:33:27;26.30;1.00
29093;DHT22;16167;48.768;14.984;2023-09-12T08:35:56;26.50;1.00
29093;DHT22;16167;48.768;14.984;2023-09-12T08:38:24;26.70;1.00
29093;DHT22;16167;48.768;14.984;2023-09-12T08:40:52;26.90;1.00
29093;DHT22;16167;48.768;14.984;2023-09-12T08:43:20;27.10;1.00
29093;DHT22;16167;48.768;14.984;2023-09-12T08:45:48;27.10;1.00
29093;DHT22;16167;48.768;14.984;2023-09-12T08:48:16;27.30;1.00
29093;DHT22;16167;48.768;14.984;2023-09-12T08:50:48;27.50;1.00
29093;DHT22;16167;48.768;14.984;2023-09-12T08:53:18;27.80;1.00
29093;DHT22;16167;48.768;14.984;2023-09-12T08:55:49;28.00;1.00
29093;DHT22;16167;48.768;14.984;2023-09-12T08:58:18;28.20;1.00
29093;DHT22;16167;48.768;14.984;2023-09-12T09:00:47;28.30;1.00
29093;DHT22;16167;48.768;14.984;2023-09-12T09:03:15;28.50;1.00
29093;DHT22;16167;48.768;14.984;2023-09-12T09:05:44;28.70;1.00
29093;DHT22;16167;48.768;14.984;2023-09-12T09:08:13;28.90;1.00
29093;DHT22;16167;48.768;14.984;2023-09-12T09:10:50;29.10;1.00
29093;DHT22;16167;48.768;14.984;2023-09-12T09:13:22;29.20;1.00
29093;DHT22;16167;48.768;14.984;2023-09-12T09:15:49;29.40;1.00
29093;DHT22;16167;48.768;14.984;2023-09-12T09:18:49;29.60;1.00
29093;DHT22;16167;48.768;14.984;2023-09-12T09:21:17;29.80;1.00
29093;DHT22;16167;48.768;14.984;2023-09-12T09:23:46;30.00;1.00
29093;DHT22;16167;48.768;14.984;2023-09-12T09:26:15;30.20;1.00
29093;DHT22;16167;48.768;14.984;2023-09-12T09:28:43;30.40;1.00
29093;DHT22;16167;48.768;14.984;2023-09-12T09:31:11;30.60;1.00
29093;DHT22;16167;48.768;14.984;2023-09-12T09:33:40;30.80;1.00
29093;DHT22;16167;48.768;14.984;2023-09-12T09:36:12;31.00;1.00
29093;DHT22;16167;48.768;14.984;2023-09-12T09:38:40;31.20;1.00
29093;DHT22;16167;48.768;14.984;2023-09-12T09:41:08;31.40;1.00
29093;DHT22;16167;48.768;14.984;2023-09-12T09:43:38;31.70;1.00
29093;DHT22;16167;48.768;14.984;2023-09-12T09:46:06;31.80;1.00
29093;DHT22;16167;48.768;14.984;2023-09-12T09:48:35;31.80;1.00
29093;DHT22;16167;48.768;14.984;2023-09-12T09:51:03;32.00;1.00
29093;DHT22;16167;48.768;14.984;2023-09-12T09:53:31;32.10;1.00
29093;DHT22;16167;48.768;14.984;2023-09-12T09:56:09;32.30;1.00
29093;DHT22;16167;48.768;14.984;2023-09-12T09:58:43;32.40;1.00
29093;DHT22;16167;48.768;14.984;2023-09-12T10:01:14;32.40;1.00
29093;DHT22;16167;48.768;14.984;2023-09-12T10:03:45;32.50;1.00
29093;DHT22;16167;48.768;14.984;2023-09-12T10:06:15;32.60;1.00
29093;DHT22;16167;48.768;14.984;2023-09-12T10:08:43;32.30;1.00
29093;DHT22;16167;48.768;14.984;2023-09-12T10:11:12;32.40;1.00
29093;DHT22;16167;48.768;14.984;2023-09-12T10:13:46;32.60;1.00
29093;DHT22;16167;48.768;14.984;2023-09-12T10:16:15;32.90;1.00
29093;DHT22;16167;48.768;14.984;2023-09-12T10:18:46;33.10;1.00
29093;DHT22;16167;48.768;14.984;2023-09-12T10:21:21;33.10;1.00
29093;DHT22;16167;48.768;14.984;2023-09-12T10:23:51;32.80;1.00
29093;DHT22;16167;48.768;14.984;2023-09-12T10:26:19;32.40;1.00
29093;DHT22;16167;48.768;14.984;2023-09-12T10:28:49;32.00;1.00
29093;DHT22;16167;48.768;14.984;2023-09-12T10:31:18;32.00;1.00
29093;DHT22;16167;48.768;14.984;2023-09-12T10:33:46;32.40;1.00
29093;DHT22;16167;48.768;14.984;2023-09-12T10:36:17;32.80;1.00
29093;DHT22;16167;48.768;14.984;2023-09-12T10:38:46;33.40;1.00
29093;DHT22;16167;48.768;14.984;2023-09-12T10:41:15;33.60;1.00
29093;DHT22;16167;48.768;14.984;2023-09-12T10:43:44;34.00;1.00
29093;DHT22;16167;48.768;14.984;2023-09-12T10:46:14;34.20;1.00
29093;DHT22;16167;48.768;14.984;2023-09-12T10:48:42;34.50;1.00
29093;DHT22;16167;48.768;14.984;2023-09-12T10:51:11;34.80;1.00
29093;DHT22;16167;48.768;14.984;2023-09-12T10:53:44;34.90;1.00
29093;DHT22;16167;48.768;14.984;2023-09-12T10:56:16;35.10;1.00
29093;DHT22;16167;48.768;14.984;2023-09-12T11:01:34;34.90;1.00
29093;DHT22;16167;48.768;14.984;2023-09-12T11:04:05;34.10;1.00
29093;DHT22;16167;48.768;14.984;2023-09-12T11:06:55;34.10;1.00
29093;DHT22;16167;48.768;14.984;2023-09-12T11:09:25;34.20;1.00
29093;DHT22;16167;48.768;14.984;2023-09-12T11:11:57;34.60;1.00
29093;DHT22;16167;48.768;14.984;2023-09-12T11:14:25;34.80;1.00
29093;DHT22;16167;48.768;14.984;2023-09-12T11:19:44;34.90;1.00
29093;DHT22;16167;48.768;14.984;2023-09-12T11:22:20;34.30;1.00
29093;DHT22;16167;48.768;14.984;2023-09-12T11:24:48;33.70;1.00
29093;DHT22;16167;48.768;14.984;2023-09-12T11:27:17;33.10;1.00
29093;DHT22;16167;48.768;14.984;2023-09-12T11:29:45;32.80;1.00
29093;DHT22;16167;48.768;14.984;2023-09-12T11:32:24;32.80;1.00
29093;DHT22;16167;48.768;14.984;2023-09-12T11:34:54;32.50;1.00
29093;DHT22;16167;48.768;14.984;2023-09-12T11:37:22;33.00;1.00
29093;DHT22;16167;48.768;14.984;2023-09-12T11:39:51;33.60;1.00
29093;DHT22;16167;48.768;14.984;2023-09-12T11:42:20;33.50;1.00
29093;DHT22;16167;48.768;14.984;2023-09-12T11:44:49;34.00;1.00
29093;DHT22;16167;48.768;14.984;2023-09-12T11:47:18;34.10;1.00
29093;DHT22;16167;48.768;14.984;2023-09-12T11:49:47;34.50;1.00
29093;DHT22;16167;48.768;14.984;2023-09-12T11:52:16;35.10;1.00
29093;DHT22;16167;48.768;14.984;2023-09-12T11:54:44;35.50;1.00
29093;DHT22;16167;48.768;14.984;2023-09-12T11:57:13;36.20;1.00
29093;DHT22;16167;48.768;14.984;2023-09-12T11:59:42;36.60;1.00
29093;DHT22;16167;48.768;14.984;2023-09-12T12:02:11;36.90;1.00
29093;DHT22;16167;48.768;14.984;2023-09-12T12:04:39;37.20;1.00
29093;DHT22;16167;48.768;14.984;2023-09-12T12:07:08;37.50;1.00
29093;DHT22;16167;48.768;14.984;2023-09-12T12:09:38;37.80;1.00
29093;DHT22;16167;48.768;14.984;2023-09-12T12:12:10;37.80;1.00
29093;DHT22;16167;48.768;14.984;2023-09-12T12:14:38;38.00;1.00
29093;DHT22;16167;48.768;14.984;2023-09-12T12:17:07;38.20;1.00
29093;DHT22;16167;48.768;14.984;2023-09-12T12:19:36;38.00;1.00
29093;DHT22;16167;48.768;14.984;2023-09-12T12:22:04;37.90;1.00
29093;DHT22;16167;48.768;14.984;2023-09-12T12:24:39;37.90;1.00
29093;DHT22;16167;48.768;14.984;2023-09-12T12:27:07;37.80;1.00
29093;DHT22;16167;48.768;14.984;2023-09-12T12:29:37;37.70;1.00
29093;DHT22;16167;48.768;14.984;2023-09-12T12:32:06;37.60;1.00
29093;DHT22;16167;48.768;14.984;2023-09-12T12:34:36;37.50;1.00
29093;DHT22;16167;48.768;14.984;2023-09-12T12:37:27;37.60;1.00
29093;DHT22;16167;48.768;14.984;2023-09-12T12:39:58;38.00;1.00
29093;DHT22;16167;48.768;14.984;2023-09-12T12:42:32;38.00;1.00
29093;DHT22;16167;48.768;14.984;2023-09-12T12:45:15;37.80;1.00
29093;DHT22;16167;48.768;14.984;2023-09-12T12:47:43;38.00;1.00
29093;DHT22;16167;48.768;14.984;2023-09-12T12:50:11;38.00;1.00
29093;DHT22;16167;48.768;14.984;2023-09-12T12:52:39;38.00;1.00
29093;DHT22;16167;48.768;14.984;2023-09-12T12:55:10;38.00;1.00
29093;DHT22;16167;48.768;14.984;2023-09-12T12:57:39;38.00;1.00
29093;DHT22;16167;48.768;14.984;2023-09-12T13:00:07;38.00;1.00
29093;DHT22;16167;48.768;14.984;2023-09-12T13:02:37;38.00;1.00
29093;DHT22;16167;48.768;14.984;2023-09-12T13:05:06;38.00;1.00
29093;DHT22;16167;48.768;14.984;2023-09-12T13:07:35;37.90;1.00
29093;DHT22;16167;48.768;14.984;2023-09-12T13:10:03;37.90;1.00
29093;DHT22;16167;48.768;14.984;2023-09-12T13:12:33;37.80;1.00
29093;DHT22;16167;48.768;14.984;2023-09-12T13:15:01;37.90;1.00
29093;DHT22;16167;48.768;14.984;2023-09-12T13:17:29;37.90;1.00
29093;DHT22;16167;48.768;14.984;2023-09-12T13:19:57;38.10;1.00
29093;DHT22;16167;48.768;14.984;2023-09-12T13:22:25;38.20;1.00
29093;DHT22;16167;48.768;14.984;2023-09-12T13:24:53;38.20;1.00
29093;DHT22;16167;48.768;14.984;2023-09-12T13:27:21;38.20;1.00
29093;DHT22;16167;48.768;14.984;2023-09-12T13:29:51;38.20;1.00
29093;DHT22;16167;48.768;14.984;2023-09-12T13:32:18;38.10;1.00
29093;DHT22;16167;48.768;14.984;2023-09-12T13:34:46;38.10;1.00
29093;DHT22;16167;48.768;14.984;2023-09-12T13:37:16;38.00;1.00
29093;DHT22;16167;48.768;14.984;2023-09-12T13:39:45;37.80;1.00
29093;DHT22;16167;48.768;14.984;2023-09-12T13:42:15;37.70;1.00
29093;DHT22;16167;48.768;14.984;2023-09-12T13:44:46;37.60;1.00
29093;DHT22;16167;48.768;14.984;2023-09-12T13:47:15;37.40;1.00
29093;DHT22;16167;48.768;14.984;2023-09-12T13:49:49;37.10;1.00
29093;DHT22;16167;48.768;14.984;2023-09-12T13:52:19;36.70;1.00
29093;DHT22;16167;48.768;14.984;2023-09-12T13:54:47;36.40;1.00
29093;DHT22;16167;48.768;14.984;2023-09-12T13:57:15;36.20;1.00
29093;DHT22;16167;48.768;14.984;2023-09-12T13:59:43;36.00;1.00
29093;DHT22;16167;48.768;14.984;2023-09-12T14:02:12;35.70;1.00
29093;DHT22;16167;48.768;14.984;2023-09-12T14:04:42;35.30;1.00
29093;DHT22;16167;48.768;14.984;2023-09-12T14:07:11;35.10;1.00
29093;DHT22;16167;48.768;14.984;2023-09-12T14:09:39;34.70;1.00
29093;DHT22;16167;48.768;14.984;2023-09-12T14:12:08;34.40;1.00
29093;DHT22;16167;48.768;14.984;2023-09-12T14:14:52;34.10;1.00
29093;DHT22;16167;48.768;14.984;2023-09-12T14:17:31;33.80;1.00
29093;DHT22;16167;48.768;14.984;2023-09-12T14:20:01;33.60;1.00
29093;DHT22;16167;48.768;14.984;2023-09-12T14:22:29;33.40;1.00
29093;DHT22;16167;48.768;14.984;2023-09-12T14:24:58;33.40;1.00
29093;DHT22;16167;48.768;14.984;2023-09-12T14:27:28;33.20;1.00
29093;DHT22;16167;48.768;14.984;2023-09-12T14:29:56;33.00;1.00
29093;DHT22;16167;48.768;14.984;2023-09-12T14:32:26;32.90;1.00
29093;DHT22;16167;48.768;14.984;2023-09-12T14:34:54;32.90;1.00
29093;DHT22;16167;48.768;14.984;2023-09-12T14:37:23;32.80;1.00
29093;DHT22;16167;48.768;14.984;2023-09-12T14:39:54;32.70;1.00
29093;DHT22;16167;48.768;14.984;2023-09-12T14:42:23;32.60;1.00
29093;DHT22;16167;48.768;14.984;2023-09-12T14:44:51;32.50;1.00
29093;DHT22;16167;48.768;14.984;2023-09-12T14:47:19;32.40;1.00
29093;DHT22;16167;48.768;14.984;2023-09-12T14:49:47;32.30;1.00
29093;DHT22;16167;48.768;14.984;2023-09-12T14:52:17;32.30;1.00
29093;DHT22;16167;48.768;14.984;2023-09-12T14:54:54;32.20;1.00
29093;DHT22;16167;48.768;14.984;2023-09-12T14:57:25;32.20;1.00
29093;DHT22;16167;48.768;14.984;2023-09-12T14:59:53;32.10;1.00
29093;DHT22;16167;48.768;14.984;2023-09-12T15:02:22;31.90;1.00
29093;DHT22;16167;48.768;14.984;2023-09-12T15:04:50;31.80;1.00
29093;DHT22;16167;48.768;14.984;2023-09-12T15:07:18;31.70;1.00
29093;DHT22;16167;48.768;14.984;2023-09-12T15:09:46;31.50;1.00
29093;DHT22;16167;48.768;14.984;2023-09-12T15:12:16;31.20;1.00
29093;DHT22;16167;48.768;14.984;2023-09-12T15:14:44;31.00;1.00
29093;DHT22;16167;48.768;14.984;2023-09-12T15:17:12;30.80;1.00
29093;DHT22;16167;48.768;14.984;2023-09-12T15:19:39;30.60;1.00
29093;DHT22;16167;48.768;14.984;2023-09-12T15:22:09;30.30;1.00
29093;DHT22;16167;48.768;14.984;2023-09-12T15:24:37;30.10;1.00
29093;DHT22;16167;48.768;14.984;2023-09-12T15:27:05;29.90;1.00
29093;DHT22;16167;48.768;14.984;2023-09-12T15:29:34;29.70;1.00
29093;DHT22;16167;48.768;14.984;2023-09-12T15:32:02;29.50;1.00
29093;DHT22;16167;48.768;14.984;2023-09-12T15:34:32;29.30;1.00
29093;DHT22;16167;48.768;14.984;2023-09-12T15:37:07;29.10;1.00
29093;DHT22;16167;48.768;14.984;2023-09-12T15:39:48;29.00;1.00
29093;DHT22;16167;48.768;14.984;2023-09-12T15:42:16;28.80;1.00
29093;DHT22;16167;48.768;14.984;2023-09-12T15:45:02;28.70;1.00